Zinder, Niger
Current Conditions -  °F | °C
As of 2:00 PM on Thursday 23 Oct 2014 (Local Time) from KQAZ Reporting Station
Clear Clear  
Wind Chill: 100°   Ceiling: Unl
Heat Index: 100°   Visibility: 6mi
Dew Point: 30°   Wind: 1mph
Humidity: 9%   Direction: 170°S
Pressure: 29.89"   Gusts: NA
Location:  13.8°N, 8.99°E
Report Text: KQAZ 231300Z AUTO 17001KT 9999 CLR 38/M01 A2989 RMK CDP03565 CLR
Loading
Personal Weather Stations






























Interactive Weather Map
Tropical Storm Tracking
New forecast layout! Learn more

10-Day Weather Forecast

Advertisements
Track Severe Weather on mobile